sensor_id;sensor_type;location;lat;lon;timestamp;temperature;humidity
24682;DHT22;12802;53.390;-2.328;2023-09-30T00:01:02;11.90;99.90
24682;DHT22;12802;53.390;-2.328;2023-09-30T00:03:28;11.90;99.90
24682;DHT22;12802;53.390;-2.328;2023-09-30T00:05:54;11.90;99.90
24682;DHT22;12802;53.390;-2.328;2023-09-30T00:08:20;11.80;99.90
24682;DHT22;12802;53.390;-2.328;2023-09-30T00:10:46;11.90;99.90
24682;DHT22;12802;53.390;-2.328;2023-09-30T00:13:12;11.90;99.90
24682;DHT22;12802;53.390;-2.328;2023-09-30T00:15:38;11.90;99.90
24682;DHT22;12802;53.390;-2.328;2023-09-30T00:18:04;11.90;99.90
24682;DHT22;12802;53.390;-2.328;2023-09-30T00:20:31;11.90;99.90
24682;DHT22;12802;53.390;-2.328;2023-09-30T00:22:57;11.80;99.90
24682;DHT22;12802;53.390;-2.328;2023-09-30T00:25:23;11.80;99.90
24682;DHT22;12802;53.390;-2.328;2023-09-30T00:27:49;11.80;99.90
24682;DHT22;12802;53.390;-2.328;2023-09-30T00:30:15;11.80;99.90
24682;DHT22;12802;53.390;-2.328;2023-09-30T00:32:42;11.80;99.90
24682;DHT22;12802;53.390;-2.328;2023-09-30T00:35:08;11.90;99.90
24682;DHT22;12802;53.390;-2.328;2023-09-30T00:37:38;11.90;99.90
24682;DHT22;12802;53.390;-2.328;2023-09-30T00:40:05;11.90;99.90
24682;DHT22;12802;53.390;-2.328;2023-09-30T00:42:30;11.90;99.90
24682;DHT22;12802;53.390;-2.328;2023-09-30T00:44:56;11.80;99.90
24682;DHT22;12802;53.390;-2.328;2023-09-30T00:47:23;11.80;99.90
24682;DHT22;12802;53.390;-2.328;2023-09-30T00:49:52;11.90;99.90
24682;DHT22;12802;53.390;-2.328;2023-09-30T00:52:19;11.90;99.90
24682;DHT22;12802;53.390;-2.328;2023-09-30T00:54:46;11.90;99.90
24682;DHT22;12802;53.390;-2.328;2023-09-30T00:57:13;11.90;99.90
24682;DHT22;12802;53.390;-2.328;2023-09-30T00:59:40;11.90;99.90
24682;DHT22;12802;53.390;-2.328;2023-09-30T01:02:07;11.80;99.90
24682;DHT22;12802;53.390;-2.328;2023-09-30T01:04:33;11.90;99.90
24682;DHT22;12802;53.390;-2.328;2023-09-30T01:06:59;11.90;99.90
24682;DHT22;12802;53.390;-2.328;2023-09-30T01:09:26;11.80;99.90
24682;DHT22;12802;53.390;-2.328;2023-09-30T01:11:53;11.80;99.90
24682;DHT22;12802;53.390;-2.328;2023-09-30T01:14:33;11.80;99.90
24682;DHT22;12802;53.390;-2.328;2023-09-30T01:17:06;11.80;99.90
24682;DHT22;12802;53.390;-2.328;2023-09-30T01:19:35;11.80;99.90
24682;DHT22;12802;53.390;-2.328;2023-09-30T01:22:01;11.80;99.90
24682;DHT22;12802;53.390;-2.328;2023-09-30T01:24:37;11.80;99.90
24682;DHT22;12802;53.390;-2.328;2023-09-30T01:27:06;11.70;99.90
24682;DHT22;12802;53.390;-2.328;2023-09-30T01:29:31;11.80;99.90
24682;DHT22;12802;53.390;-2.328;2023-09-30T01:31:58;11.80;99.90
24682;DHT22;12802;53.390;-2.328;2023-09-30T01:34:23;11.90;99.90
24682;DHT22;12802;53.390;-2.328;2023-09-30T01:36:49;11.80;99.90
24682;DHT22;12802;53.390;-2.328;2023-09-30T01:39:15;11.80;99.90
24682;DHT22;12802;53.390;-2.328;2023-09-30T01:41:41;11.80;99.90
24682;DHT22;12802;53.390;-2.328;2023-09-30T01:44:07;11.80;99.90
24682;DHT22;12802;53.390;-2.328;2023-09-30T01:46:36;11.90;99.90
24682;DHT22;12802;53.390;-2.328;2023-09-30T01:49:02;11.90;99.90
24682;DHT22;12802;53.390;-2.328;2023-09-30T01:51:29;11.80;99.90
24682;DHT22;12802;53.390;-2.328;2023-09-30T01:53:57;11.80;99.90
24682;DHT22;12802;53.390;-2.328;2023-09-30T01:56:23;11.80;99.90
24682;DHT22;12802;53.390;-2.328;2023-09-30T01:58:49;11.70;99.90
24682;DHT22;12802;53.390;-2.328;2023-09-30T02:01:15;11.70;99.90
24682;DHT22;12802;53.390;-2.328;2023-09-30T02:03:41;11.80;99.90
24682;DHT22;12802;53.390;-2.328;2023-09-30T02:06:08;11.80;99.90
24682;DHT22;12802;53.390;-2.328;2023-09-30T02:08:33;11.80;99.90
24682;DHT22;12802;53.390;-2.328;2023-09-30T02:11:03;11.80;99.90
24682;DHT22;12802;53.390;-2.328;2023-09-30T02:13:34;11.80;99.90
24682;DHT22;12802;53.390;-2.328;2023-09-30T02:16:01;11.70;99.90
24682;DHT22;12802;53.390;-2.328;2023-09-30T02:18:27;11.70;99.90
24682;DHT22;12802;53.390;-2.328;2023-09-30T02:20:53;11.80;99.90
24682;DHT22;12802;53.390;-2.328;2023-09-30T02:23:19;11.80;99.90
24682;DHT22;12802;53.390;-2.328;2023-09-30T02:25:45;11.80;99.90
24682;DHT22;12802;53.390;-2.328;2023-09-30T02:28:10;11.80;99.90
24682;DHT22;12802;53.390;-2.328;2023-09-30T02:30:36;11.80;99.90
24682;DHT22;12802;53.390;-2.328;2023-09-30T02:33:03;11.80;99.90
24682;DHT22;12802;53.390;-2.328;2023-09-30T02:35:30;11.80;99.90
24682;DHT22;12802;53.390;-2.328;2023-09-30T02:37:55;11.80;99.90
24682;DHT22;12802;53.390;-2.328;2023-09-30T02:40:21;11.80;99.90
24682;DHT22;12802;53.390;-2.328;2023-09-30T02:42:50;11.80;99.90
24682;DHT22;12802;53.390;-2.328;2023-09-30T02:45:16;11.80;99.90
24682;DHT22;12802;53.390;-2.328;2023-09-30T02:47:45;11.80;99.90
24682;DHT22;12802;53.390;-2.328;2023-09-30T02:50:12;11.70;99.90
24682;DHT22;12802;53.390;-2.328;2023-09-30T02:52:38;11.70;99.90
24682;DHT22;12802;53.390;-2.328;2023-09-30T02:55:09;11.60;99.90
24682;DHT22;12802;53.390;-2.328;2023-09-30T02:57:35;11.60;99.90
24682;DHT22;12802;53.390;-2.328;2023-09-30T03:00:05;11.50;99.90
24682;DHT22;12802;53.390;-2.328;2023-09-30T03:02:50;11.50;99.90
24682;DHT22;12802;53.390;-2.328;2023-09-30T03:05:17;11.50;99.90
24682;DHT22;12802;53.390;-2.328;2023-09-30T03:07:43;11.50;99.90
24682;DHT22;12802;53.390;-2.328;2023-09-30T03:10:09;11.50;99.90
24682;DHT22;12802;53.390;-2.328;2023-09-30T03:12:35;11.40;99.90
24682;DHT22;12802;53.390;-2.328;2023-09-30T03:15:01;11.40;99.90
24682;DHT22;12802;53.390;-2.328;2023-09-30T03:17:33;11.40;99.90
24682;DHT22;12802;53.390;-2.328;2023-09-30T03:19:59;11.40;99.90
24682;DHT22;12802;53.390;-2.328;2023-09-30T03:22:26;11.40;99.90
24682;DHT22;12802;53.390;-2.328;2023-09-30T03:24:54;11.40;99.90
24682;DHT22;12802;53.390;-2.328;2023-09-30T03:27:20;11.30;99.90
24682;DHT22;12802;53.390;-2.328;2023-09-30T03:29:46;11.30;99.90
24682;DHT22;12802;53.390;-2.328;2023-09-30T03:32:12;11.20;99.90
24682;DHT22;12802;53.390;-2.328;2023-09-30T03:34:37;11.20;99.90
24682;DHT22;12802;53.390;-2.328;2023-09-30T03:37:03;11.20;99.90
24682;DHT22;12802;53.390;-2.328;2023-09-30T03:39:32;11.00;99.90
24682;DHT22;12802;53.390;-2.328;2023-09-30T03:41:58;10.90;99.90
24682;DHT22;12802;53.390;-2.328;2023-09-30T03:44:24;10.80;99.90
24682;DHT22;12802;53.390;-2.328;2023-09-30T03:46:53;10.90;99.90
24682;DHT22;12802;53.390;-2.328;2023-09-30T03:49:19;11.00;99.90
24682;DHT22;12802;53.390;-2.328;2023-09-30T03:51:46;10.90;99.90
24682;DHT22;12802;53.390;-2.328;2023-09-30T03:54:12;10.90;99.90
24682;DHT22;12802;53.390;-2.328;2023-09-30T03:56:38;10.90;99.90
24682;DHT22;12802;53.390;-2.328;2023-09-30T03:59:07;10.90;99.90
24682;DHT22;12802;53.390;-2.328;2023-09-30T04:01:34;10.90;99.90
24682;DHT22;12802;53.390;-2.328;2023-09-30T04:04:00;10.90;99.90
24682;DHT22;12802;53.390;-2.328;2023-09-30T04:06:26;10.90;99.90
24682;DHT22;12802;53.390;-2.328;2023-09-30T04:08:52;10.90;99.90
24682;DHT22;12802;53.390;-2.328;2023-09-30T04:11:17;11.00;99.90
24682;DHT22;12802;53.390;-2.328;2023-09-30T04:13:44;11.00;99.90
24682;DHT22;12802;53.390;-2.328;2023-09-30T04:16:11;11.00;99.90
24682;DHT22;12802;53.390;-2.328;2023-09-30T04:18:36;10.90;99.90
24682;DHT22;12802;53.390;-2.328;2023-09-30T04:21:04;10.80;99.90
24682;DHT22;12802;53.390;-2.328;2023-09-30T04:23:29;10.80;99.90
24682;DHT22;12802;53.390;-2.328;2023-09-30T04:25:55;10.90;99.90
24682;DHT22;12802;53.390;-2.328;2023-09-30T04:28:21;10.90;99.90
24682;DHT22;12802;53.390;-2.328;2023-09-30T04:30:47;11.00;99.90
24682;DHT22;12802;53.390;-2.328;2023-09-30T04:33:17;10.90;99.90
24682;DHT22;12802;53.390;-2.328;2023-09-30T04:35:50;10.90;99.90
24682;DHT22;12802;53.390;-2.328;2023-09-30T04:38:16;11.00;99.90
24682;DHT22;12802;53.390;-2.328;2023-09-30T04:40:41;10.90;99.90
24682;DHT22;12802;53.390;-2.328;2023-09-30T04:43:10;11.00;99.90
24682;DHT22;12802;53.390;-2.328;2023-09-30T04:45:36;11.00;99.90
24682;DHT22;12802;53.390;-2.328;2023-09-30T04:48:02;11.00;99.90
24682;DHT22;12802;53.390;-2.328;2023-09-30T04:50:28;11.00;99.90
24682;DHT22;12802;53.390;-2.328;2023-09-30T04:52:56;11.00;99.90
24682;DHT22;12802;53.390;-2.328;2023-09-30T04:55:22;11.00;99.90
24682;DHT22;12802;53.390;-2.328;2023-09-30T04:57:48;11.00;99.90
24682;DHT22;12802;53.390;-2.328;2023-09-30T05:00:15;11.00;99.90
24682;DHT22;12802;53.390;-2.328;2023-09-30T05:02:44;11.00;99.90
24682;DHT22;12802;53.390;-2.328;2023-09-30T05:05:11;11.00;99.90
24682;DHT22;12802;53.390;-2.328;2023-09-30T05:07:37;11.00;99.90
24682;DHT22;12802;53.390;-2.328;2023-09-30T05:10:03;11.00;99.90
24682;DHT22;12802;53.390;-2.328;2023-09-30T05:12:36;11.00;99.90
24682;DHT22;12802;53.390;-2.328;2023-09-30T05:15:02;11.00;99.90
24682;DHT22;12802;53.390;-2.328;2023-09-30T05:17:28;11.10;99.90
24682;DHT22;12802;53.390;-2.328;2023-09-30T05:19:56;11.10;99.90
24682;DHT22;12802;53.390;-2.328;2023-09-30T05:22:22;11.00;99.90
24682;DHT22;12802;53.390;-2.328;2023-09-30T05:24:52;11.00;99.90
24682;DHT22;12802;53.390;-2.328;2023-09-30T05:27:19;11.00;99.90
24682;DHT22;12802;53.390;-2.328;2023-09-30T05:29:45;11.00;99.90
24682;DHT22;12802;53.390;-2.328;2023-09-30T05:32:11;11.00;99.90
24682;DHT22;12802;53.390;-2.328;2023-09-30T05:34:37;11.00;99.90
24682;DHT22;12802;53.390;-2.328;2023-09-30T05:37:04;11.10;99.90
24682;DHT22;12802;53.390;-2.328;2023-09-30T05:39:30;11.10;99.90
24682;DHT22;12802;53.390;-2.328;2023-09-30T05:41:57;11.00;99.90
24682;DHT22;12802;53.390;-2.328;2023-09-30T05:44:23;11.00;99.90
24682;DHT22;12802;53.390;-2.328;2023-09-30T05:46:51;11.00;99.90
24682;DHT22;12802;53.390;-2.328;2023-09-30T05:49:17;11.00;99.90
24682;DHT22;12802;53.390;-2.328;2023-09-30T05:51:44;11.00;99.90
24682;DHT22;12802;53.390;-2.328;2023-09-30T05:54:12;11.00;99.90
24682;DHT22;12802;53.390;-2.328;2023-09-30T05:56:38;11.00;99.90
24682;DHT22;12802;53.390;-2.328;2023-09-30T05:59:05;11.00;99.90
24682;DHT22;12802;53.390;-2.328;2023-09-30T06:01:33;11.00;99.90
24682;DHT22;12802;53.390;-2.328;2023-09-30T06:04:00;11.00;99.90
24682;DHT22;12802;53.390;-2.328;2023-09-30T06:06:26;11.00;99.90
24682;DHT22;12802;53.390;-2.328;2023-09-30T06:08:54;11.00;99.90
24682;DHT22;12802;53.390;-2.328;2023-09-30T06:11:21;11.00;99.90
24682;DHT22;12802;53.390;-2.328;2023-09-30T06:13:52;11.00;99.90
24682;DHT22;12802;53.390;-2.328;2023-09-30T06:16:19;11.10;99.90
24682;DHT22;12802;53.390;-2.328;2023-09-30T06:18:45;11.00;99.90
24682;DHT22;12802;53.390;-2.328;2023-09-30T06:21:11;11.10;99.90
24682;DHT22;12802;53.390;-2.328;2023-09-30T06:23:37;11.10;99.90
24682;DHT22;12802;53.390;-2.328;2023-09-30T06:26:03;11.10;99.90
24682;DHT22;12802;53.390;-2.328;2023-09-30T06:28:29;11.20;99.90
24682;DHT22;12802;53.390;-2.328;2023-09-30T06:30:57;11.20;99.90
24682;DHT22;12802;53.390;-2.328;2023-09-30T06:33:23;11.30;99.90
24682;DHT22;12802;53.390;-2.328;2023-09-30T06:35:49;11.30;99.90
24682;DHT22;12802;53.390;-2.328;2023-09-30T06:38:19;11.40;99.90
24682;DHT22;12802;53.390;-2.328;2023-09-30T06:40:45;11.40;99.90
24682;DHT22;12802;53.390;-2.328;2023-09-30T06:43:13;11.50;99.90
24682;DHT22;12802;53.390;-2.328;2023-09-30T06:45:44;11.50;99.90
24682;DHT22;12802;53.390;-2.328;2023-09-30T06:48:11;11.60;99.90
24682;DHT22;12802;53.390;-2.328;2023-09-30T06:50:47;11.60;99.90
24682;DHT22;12802;53.390;-2.328;2023-09-30T06:53:17;11.60;99.90
24682;DHT22;12802;53.390;-2.328;2023-09-30T06:55:44;11.60;99.90
24682;DHT22;12802;53.390;-2.328;2023-09-30T06:58:10;11.70;99.90
24682;DHT22;12802;53.390;-2.328;2023-09-30T07:00:37;11.70;99.90
24682;DHT22;12802;53.390;-2.328;2023-09-30T07:03:04;11.70;99.90
24682;DHT22;12802;53.390;-2.328;2023-09-30T07:05:30;11.80;99.90
24682;DHT22;12802;53.390;-2.328;2023-09-30T07:07:56;11.80;99.90
24682;DHT22;12802;53.390;-2.328;2023-09-30T07:10:22;11.80;99.90
24682;DHT22;12802;53.390;-2.328;2023-09-30T07:12:47;11.90;99.90
24682;DHT22;12802;53.390;-2.328;2023-09-30T07:15:13;11.90;99.90
24682;DHT22;12802;53.390;-2.328;2023-09-30T07:17:40;11.90;99.90
24682;DHT22;12802;53.390;-2.328;2023-09-30T07:20:06;12.10;99.90
24682;DHT22;12802;53.390;-2.328;2023-09-30T07:22:35;12.20;99.90
24682;DHT22;12802;53.390;-2.328;2023-09-30T07:25:02;12.20;99.90
24682;DHT22;12802;53.390;-2.328;2023-09-30T07:27:27;12.20;99.90
24682;DHT22;12802;53.390;-2.328;2023-09-30T07:29:53;12.20;99.90
24682;DHT22;12802;53.390;-2.328;2023-09-30T07:32:19;12.30;99.90
24682;DHT22;12802;53.390;-2.328;2023-09-30T07:34:48;12.40;99.90
24682;DHT22;12802;53.390;-2.328;2023-09-30T07:37:13;12.50;99.90
24682;DHT22;12802;53.390;-2.328;2023-09-30T07:39:40;12.50;99.90
24682;DHT22;12802;53.390;-2.328;2023-09-30T07:42:09;12.50;99.90
24682;DHT22;12802;53.390;-2.328;2023-09-30T07:44:34;12.50;99.90
24682;DHT22;12802;53.390;-2.328;2023-09-30T07:47:03;12.60;99.90
24682;DHT22;12802;53.390;-2.328;2023-09-30T07:49:29;12.60;99.90
24682;DHT22;12802;53.390;-2.328;2023-09-30T07:51:55;12.60;99.90
24682;DHT22;12802;53.390;-2.328;2023-09-30T07:54:21;12.60;99.90
24682;DHT22;12802;53.390;-2.328;2023-09-30T07:56:47;12.70;99.90
24682;DHT22;12802;53.390;-2.328;2023-09-30T07:59:13;12.70;99.90
24682;DHT22;12802;53.390;-2.328;2023-09-30T08:01:39;12.80;99.90
24682;DHT22;12802;53.390;-2.328;2023-09-30T08:04:06;12.90;99.90
24682;DHT22;12802;53.390;-2.328;2023-09-30T08:06:32;13.00;99.90
24682;DHT22;12802;53.390;-2.328;2023-09-30T08:08:57;13.00;99.90
24682;DHT22;12802;53.390;-2.328;2023-09-30T08:11:23;13.20;99.90
24682;DHT22;12802;53.390;-2.328;2023-09-30T08:13:53;13.30;99.90
24682;DHT22;12802;53.390;-2.328;2023-09-30T08:16:19;13.30;99.90
24682;DHT22;12802;53.390;-2.328;2023-09-30T08:18:45;13.30;99.90
24682;DHT22;12802;53.390;-2.328;2023-09-30T08:21:11;13.30;99.90
24682;DHT22;12802;53.390;-2.328;2023-09-30T08:23:37;13.30;99.90
24682;DHT22;12802;53.390;-2.328;2023-09-30T08:26:05;13.30;99.90
24682;DHT22;12802;53.390;-2.328;2023-09-30T08:28:31;13.30;99.90
24682;DHT22;12802;53.390;-2.328;2023-09-30T08:31:02;13.30;99.90
24682;DHT22;12802;53.390;-2.328;2023-09-30T08:33:28;13.40;99.90
24682;DHT22;12802;53.390;-2.328;2023-09-30T08:35:56;13.50;99.90
24682;DHT22;12802;53.390;-2.328;2023-09-30T08:38:23;13.50;99.90
24682;DHT22;12802;53.390;-2.328;2023-09-30T08:40:52;13.60;99.90
24682;DHT22;12802;53.390;-2.328;2023-09-30T08:43:21;13.60;99.90
24682;DHT22;12802;53.390;-2.328;2023-09-30T08:45:54;13.60;99.90
24682;DHT22;12802;53.390;-2.328;2023-09-30T08:48:20;13.80;99.90
24682;DHT22;12802;53.390;-2.328;2023-09-30T08:50:48;13.90;99.90
24682;DHT22;12802;53.390;-2.328;2023-09-30T08:53:16;14.10;99.90
24682;DHT22;12802;53.390;-2.328;2023-09-30T08:55:43;14.20;99.90
24682;DHT22;12802;53.390;-2.328;2023-09-30T08:58:11;14.20;99.90
24682;DHT22;12802;53.390;-2.328;2023-09-30T09:00:39;14.10;99.90
24682;DHT22;12802;53.390;-2.328;2023-09-30T09:03:06;14.10;99.90
24682;DHT22;12802;53.390;-2.328;2023-09-30T09:05:33;14.10;99.90
24682;DHT22;12802;53.390;-2.328;2023-09-30T09:07:58;14.10;99.90
24682;DHT22;12802;53.390;-2.328;2023-09-30T09:10:24;14.10;99.90
24682;DHT22;12802;53.390;-2.328;2023-09-30T09:12:57;14.20;99.90
24682;DHT22;12802;53.390;-2.328;2023-09-30T09:15:25;14.20;99.90
24682;DHT22;12802;53.390;-2.328;2023-09-30T09:17:51;14.20;99.90
24682;DHT22;12802;53.390;-2.328;2023-09-30T09:20:22;14.30;99.90
24682;DHT22;12802;53.390;-2.328;2023-09-30T09:22:50;14.40;99.90
24682;DHT22;12802;53.390;-2.328;2023-09-30T09:25:19;14.40;99.90
24682;DHT22;12802;53.390;-2.328;2023-09-30T09:27:45;14.50;99.90
24682;DHT22;12802;53.390;-2.328;2023-09-30T09:30:25;14.50;99.90
24682;DHT22;12802;53.390;-2.328;2023-09-30T09:33:04;14.50;99.90
24682;DHT22;12802;53.390;-2.328;2023-09-30T09:35:31;14.50;99.90
24682;DHT22;12802;53.390;-2.328;2023-09-30T09:38:04;14.50;99.90
24682;DHT22;12802;53.390;-2.328;2023-09-30T09:40:35;14.50;99.90
24682;DHT22;12802;53.390;-2.328;2023-09-30T09:43:02;14.50;99.90
24682;DHT22;12802;53.390;-2.328;2023-09-30T09:45:32;14.60;99.90
24682;DHT22;12802;53.390;-2.328;2023-09-30T09:47:58;14.60;99.90
24682;DHT22;12802;53.390;-2.328;2023-09-30T09:50:25;14.60;99.90
24682;DHT22;12802;53.390;-2.328;2023-09-30T09:52:52;14.60;99.90
24682;DHT22;12802;53.390;-2.328;2023-09-30T09:55:20;14.60;99.90
24682;DHT22;12802;53.390;-2.328;2023-09-30T09:57:48;14.60;99.90
24682;DHT22;12802;53.390;-2.328;2023-09-30T10:00:19;14.60;99.90
24682;DHT22;12802;53.390;-2.328;2023-09-30T10:02:47;14.60;99.90
24682;DHT22;12802;53.390;-2.328;2023-09-30T10:05:14;14.60;99.90
24682;DHT22;12802;53.390;-2.328;2023-09-30T10:07:57;14.60;99.90
24682;DHT22;12802;53.390;-2.328;2023-09-30T10:10:26;14.60;99.90
24682;DHT22;12802;53.390;-2.328;2023-09-30T10:12:53;14.60;99.90
24682;DHT22;12802;53.390;-2.328;2023-09-30T10:20:32;14.60;99.90
24682;DHT22;12802;53.390;-2.328;2023-09-30T10:25:43;14.60;99.90
24682;DHT22;12802;53.390;-2.328;2023-09-30T10:28:41;14.60;99.90
24682;DHT22;12802;53.390;-2.328;2023-09-30T10:31:08;14.60;99.90
24682;DHT22;12802;53.390;-2.328;2023-09-30T10:33:35;14.60;99.90
24682;DHT22;12802;53.390;-2.328;2023-09-30T10:36:02;14.60;99.90
24682;DHT22;12802;53.390;-2.328;2023-09-30T10:41:00;14.70;99.90
24682;DHT22;12802;53.390;-2.328;2023-09-30T10:43:40;14.70;99.90
24682;DHT22;12802;53.390;-2.328;2023-09-30T10:48:54;14.70;99.90
24682;DHT22;12802;53.390;-2.328;2023-09-30T10:51:21;14.70;99.90
24682;DHT22;12802;53.390;-2.328;2023-09-30T10:53:54;14.80;99.90
24682;DHT22;12802;53.390;-2.328;2023-09-30T10:56:32;14.80;99.90
24682;DHT22;12802;53.390;-2.328;2023-09-30T10:58:58;14.80;99.90
24682;DHT22;12802;53.390;-2.328;2023-09-30T11:01:32;14.90;99.90
24682;DHT22;12802;53.390;-2.328;2023-09-30T11:04:01;15.00;99.90
24682;DHT22;12802;53.390;-2.328;2023-09-30T11:06:30;15.10;99.90
24682;DHT22;12802;53.390;-2.328;2023-09-30T11:08:57;15.10;99.90
24682;DHT22;12802;53.390;-2.328;2023-09-30T11:14:17;15.20;99.90
24682;DHT22;12802;53.390;-2.328;2023-09-30T11:16:43;15.20;99.90
24682;DHT22;12802;53.390;-2.328;2023-09-30T11:19:10;15.30;99.90
24682;DHT22;12802;53.390;-2.328;2023-09-30T11:21:38;15.40;99.90
24682;DHT22;12802;53.390;-2.328;2023-09-30T11:24:04;15.50;99.90
24682;DHT22;12802;53.390;-2.328;2023-09-30T11:26:32;15.50;99.90
24682;DHT22;12802;53.390;-2.328;2023-09-30T11:29:08;15.50;99.90
24682;DHT22;12802;53.390;-2.328;2023-09-30T11:31:37;15.60;99.90
24682;DHT22;12802;53.390;-2.328;2023-09-30T11:34:03;15.70;99.90
24682;DHT22;12802;53.390;-2.328;2023-09-30T11:36:30;15.70;99.90
24682;DHT22;12802;53.390;-2.328;2023-09-30T11:38:59;15.70;99.90
24682;DHT22;12802;53.390;-2.328;2023-09-30T11:41:38;15.70;99.90
24682;DHT22;12802;53.390;-2.328;2023-09-30T11:44:06;15.70;99.90
24682;DHT22;12802;53.390;-2.328;2023-09-30T11:46:56;15.70;99.90
24682;DHT22;12802;53.390;-2.328;2023-09-30T11:51:56;15.60;99.90
24682;DHT22;12802;53.390;-2.328;2023-09-30T11:54:22;15.50;99.90
24682;DHT22;12802;53.390;-2.328;2023-09-30T11:56:53;15.50;99.90
24682;DHT22;12802;53.390;-2.328;2023-09-30T11:59:19;15.50;99.90
24682;DHT22;12802;53.390;-2.328;2023-09-30T12:01:45;15.50;99.90
24682;DHT22;12802;53.390;-2.328;2023-09-30T12:04:14;15.50;99.90
24682;DHT22;12802;53.390;-2.328;2023-09-30T12:06:43;15.50;99.90
24682;DHT22;12802;53.390;-2.328;2023-09-30T12:09:08;15.40;99.90
24682;DHT22;12802;53.390;-2.328;2023-09-30T12:11:39;15.40;99.90
24682;DHT22;12802;53.390;-2.328;2023-09-30T12:14:05;15.50;99.90
24682;DHT22;12802;53.390;-2.328;2023-09-30T12:16:32;15.60;99.90
24682;DHT22;12802;53.390;-2.328;2023-09-30T12:18:57;15.50;99.90
24682;DHT22;12802;53.390;-2.328;2023-09-30T12:21:23;15.50;99.90
24682;DHT22;12802;53.390;-2.328;2023-09-30T12:23:49;15.50;99.90
24682;DHT22;12802;53.390;-2.328;2023-09-30T12:26:15;15.50;99.90
24682;DHT22;12802;53.390;-2.328;2023-09-30T12:28:43;15.50;99.90
24682;DHT22;12802;53.390;-2.328;2023-09-30T12:31:09;15.50;99.90
24682;DHT22;12802;53.390;-2.328;2023-09-30T12:33:36;15.50;99.90
24682;DHT22;12802;53.390;-2.328;2023-09-30T12:36:02;15.50;99.90
24682;DHT22;12802;53.390;-2.328;2023-09-30T12:38:27;15.50;99.90
24682;DHT22;12802;53.390;-2.328;2023-09-30T12:40:57;15.50;99.90
24682;DHT22;12802;53.390;-2.328;2023-09-30T12:43:23;15.50;99.90
24682;DHT22;12802;53.390;-2.328;2023-09-30T12:45:48;15.50;99.90
24682;DHT22;12802;53.390;-2.328;2023-09-30T12:48:14;15.50;99.90
24682;DHT22;12802;53.390;-2.328;2023-09-30T12:50:41;15.40;99.90
24682;DHT22;12802;53.390;-2.328;2023-09-30T12:53:07;15.30;99.90
24682;DHT22;12802;53.390;-2.328;2023-09-30T12:55:32;15.30;99.90
24682;DHT22;12802;53.390;-2.328;2023-09-30T12:57:59;15.30;99.90
24682;DHT22;12802;53.390;-2.328;2023-09-30T13:00:26;15.20;99.90
24682;DHT22;12802;53.390;-2.328;2023-09-30T13:02:52;15.20;99.90
24682;DHT22;12802;53.390;-2.328;2023-09-30T13:05:18;15.20;99.90
24682;DHT22;12802;53.390;-2.328;2023-09-30T13:07:45;15.20;99.90
24682;DHT22;12802;53.390;-2.328;2023-09-30T13:10:12;15.10;99.90
24682;DHT22;12802;53.390;-2.328;2023-09-30T13:12:38;15.10;99.90
24682;DHT22;12802;53.390;-2.328;2023-09-30T13:15:05;15.10;99.90
24682;DHT22;12802;53.390;-2.328;2023-09-30T13:17:31;15.00;99.90
24682;DHT22;12802;53.390;-2.328;2023-09-30T13:22:22;15.00;99.90
24682;DHT22;12802;53.390;-2.328;2023-09-30T13:24:48;14.90;99.90
24682;DHT22;12802;53.390;-2.328;2023-09-30T13:27:14;14.90;99.90
24682;DHT22;12802;53.390;-2.328;2023-09-30T13:29:44;14.90;99.90
24682;DHT22;12802;53.390;-2.328;2023-09-30T13:32:10;14.90;99.90
24682;DHT22;12802;53.390;-2.328;2023-09-30T13:34:36;14.90;99.90
24682;DHT22;12802;53.390;-2.328;2023-09-30T13:37:02;14.80;99.90
24682;DHT22;12802;53.390;-2.328;2023-09-30T13:39:28;14.70;99.90
24682;DHT22;12802;53.390;-2.328;2023-09-30T13:41:54;14.60;99.90
24682;DHT22;12802;53.390;-2.328;2023-09-30T13:44:20;14.60;99.90
24682;DHT22;12802;53.390;-2.328;2023-09-30T13:49:13;14.60;99.90
24682;DHT22;12802;53.390;-2.328;2023-09-30T13:51:39;14.60;99.90
24682;DHT22;12802;53.390;-2.328;2023-09-30T13:54:05;14.50;99.90
24682;DHT22;12802;53.390;-2.328;2023-09-30T13:56:34;14.40;99.90
24682;DHT22;12802;53.390;-2.328;2023-09-30T13:59:00;14.40;99.90
24682;DHT22;12802;53.390;-2.328;2023-09-30T14:01:26;14.30;99.90
24682;DHT22;12802;53.390;-2.328;2023-09-30T14:03:52;14.10;99.90
24682;DHT22;12802;53.390;-2.328;2023-09-30T14:06:22;14.10;99.90
24682;DHT22;12802;53.390;-2.328;2023-09-30T14:08:48;14.10;99.90
24682;DHT22;12802;53.390;-2.328;2023-09-30T14:11:14;14.10;99.90
24682;DHT22;12802;53.390;-2.328;2023-09-30T14:13:39;14.10;99.90
24682;DHT22;12802;53.390;-2.328;2023-09-30T14:16:06;14.00;99.90
24682;DHT22;12802;53.390;-2.328;2023-09-30T14:18:32;13.80;99.90
24682;DHT22;12802;53.390;-2.328;2023-09-30T14:20:59;13.60;99.90
24682;DHT22;12802;53.390;-2.328;2023-09-30T14:23:26;13.50;99.90
24682;DHT22;12802;53.390;-2.328;2023-09-30T14:25:55;13.50;99.90
24682;DHT22;12802;53.390;-2.328;2023-09-30T14:28:23;13.40;99.90
24682;DHT22;12802;53.390;-2.328;2023-09-30T14:30:49;13.30;99.90
24682;DHT22;12802;53.390;-2.328;2023-09-30T14:33:16;13.30;99.90
24682;DHT22;12802;53.390;-2.328;2023-09-30T14:35:42;13.20;99.90
24682;DHT22;12802;53.390;-2.328;2023-09-30T14:38:09;13.10;99.90
24682;DHT22;12802;53.390;-2.328;2023-09-30T14:40:38;13.00;99.90
24682;DHT22;12802;53.390;-2.328;2023-09-30T14:43:09;13.00;99.90
24682;DHT22;12802;53.390;-2.328;2023-09-30T14:45:41;13.00;99.90
24682;DHT22;12802;53.390;-2.328;2023-09-30T14:48:08;13.00;99.90
24682;DHT22;12802;53.390;-2.328;2023-09-30T14:50:35;13.00;99.90
24682;DHT22;12802;53.390;-2.328;2023-09-30T14:53:03;12.90;99.90
24682;DHT22;12802;53.390;-2.328;2023-09-30T14:55:30;12.70;99.90
24682;DHT22;12802;53.390;-2.328;2023-09-30T14:57:56;12.70;99.90
24682;DHT22;12802;53.390;-2.328;2023-09-30T15:00:22;12.60;99.90
24682;DHT22;12802;53.390;-2.328;2023-09-30T15:02:50;12.60;99.90
24682;DHT22;12802;53.390;-2.328;2023-09-30T15:05:16;12.50;99.90
24682;DHT22;12802;53.390;-2.328;2023-09-30T15:07:42;12.50;99.90
24682;DHT22;12802;53.390;-2.328;2023-09-30T15:10:08;12.40;99.90
24682;DHT22;12802;53.390;-2.328;2023-09-30T15:12:35;12.40;99.90
24682;DHT22;12802;53.390;-2.328;2023-09-30T15:15:01;12.30;99.90
24682;DHT22;12802;53.390;-2.328;2023-09-30T15:17:29;12.30;99.90
24682;DHT22;12802;53.390;-2.328;2023-09-30T15:19:55;12.30;99.90
24682;DHT22;12802;53.390;-2.328;2023-09-30T15:22:21;12.40;99.90
24682;DHT22;12802;53.390;-2.328;2023-09-30T15:24:46;12.40;99.90
24682;DHT22;12802;53.390;-2.328;2023-09-30T15:27:12;12.50;99.90
24682;DHT22;12802;53.390;-2.328;2023-09-30T15:29:38;12.60;99.90
24682;DHT22;12802;53.390;-2.328;2023-09-30T15:32:04;12.60;99.90
24682;DHT22;12802;53.390;-2.328;2023-09-30T15:34:30;12.50;99.90
24682;DHT22;12802;53.390;-2.328;2023-09-30T15:36:57;12.50;99.90
24682;DHT22;12802;53.390;-2.328;2023-09-30T15:39:23;12.50;99.90